createdAt,value
2018-11-26T00:02:03.436Z,6.50
2018-11-26T00:04:31.558Z,6.40
2018-11-26T00:06:59.631Z,6.40
2018-11-26T00:09:27.713Z,6.40
2018-11-26T00:11:56.097Z,6.40
2018-11-26T00:14:24.237Z,6.50
2018-11-26T00:16:52.353Z,6.50
2018-11-26T00:19:20.463Z,6.40
2018-11-26T00:21:48.552Z,6.50
2018-11-26T00:24:16.631Z,6.50
2018-11-26T00:26:44.749Z,6.40
2018-11-26T00:29:12.858Z,6.30
2018-11-26T00:31:40.982Z,6.30
2018-11-26T00:34:09.072Z,6.40
2018-11-26T00:36:37.188Z,6.40
2018-11-26T00:39:07.829Z,6.40
2018-11-26T00:41:35.921Z,6.50
2018-11-26T00:44:04.038Z,6.40
2018-11-26T00:46:32.140Z,6.50
2018-11-26T00:49:00.227Z,6.40
2018-11-26T00:51:28.333Z,6.40
2018-11-26T00:53:56.425Z,6.40
2018-11-26T00:56:24.535Z,6.50
2018-11-26T00:58:52.619Z,6.60
2018-11-26T01:01:20.704Z,6.70
2018-11-26T01:03:48.816Z,6.70
2018-11-26T01:06:16.941Z,6.60
2018-11-26T01:08:45.042Z,6.60
2018-11-26T01:11:13.120Z,6.60
2018-11-26T01:13:41.204Z,6.60
2018-11-26T01:16:15.146Z,6.60
2018-11-26T01:18:43.248Z,6.60
2018-11-26T01:21:11.340Z,6.50
2018-11-26T01:23:39.424Z,6.60
2018-11-26T01:26:07.586Z,6.60
2018-11-26T01:28:35.697Z,6.60
2018-11-26T01:31:03.813Z,6.60
2018-11-26T01:33:31.919Z,6.50
2018-11-26T01:36:00.023Z,6.50
2018-11-26T01:38:28.146Z,6.50
2018-11-26T01:40:56.244Z,6.50
2018-11-26T01:43:24.384Z,6.60
2018-11-26T01:45:52.492Z,6.60
2018-11-26T01:48:20.601Z,6.60
2018-11-26T01:50:48.725Z,6.50
2018-11-26T01:53:16.866Z,6.50
2018-11-26T01:55:44.998Z,6.40
2018-11-26T01:58:13.145Z,6.40
2018-11-26T02:00:41.272Z,6.40
2018-11-26T02:03:09.449Z,6.50
2018-11-26T02:05:37.575Z,6.40
2018-11-26T02:08:06.480Z,6.40
2018-11-26T02:10:34.635Z,6.40
2018-11-26T02:13:02.766Z,6.50
2018-11-26T02:15:36.489Z,6.50
2018-11-26T02:18:04.654Z,6.50
2018-11-26T02:20:32.763Z,6.50
2018-11-26T02:23:00.907Z,6.60
2018-11-26T02:25:29.041Z,6.50
2018-11-26T02:27:57.159Z,6.50
2018-11-26T02:30:25.281Z,6.50
2018-11-26T02:32:53.426Z,6.50
2018-11-26T02:35:21.552Z,6.50
2018-11-26T02:37:51.786Z,6.60
2018-11-26T02:40:27.089Z,6.60
2018-11-26T02:42:55.208Z,6.60
2018-11-26T02:45:23.337Z,6.70
2018-11-26T02:47:51.467Z,6.70
2018-11-26T02:50:19.584Z,6.60
2018-11-26T02:52:47.721Z,6.60
2018-11-26T02:55:15.865Z,6.60
2018-11-26T02:57:43.984Z,6.60
2018-11-26T03:00:12.699Z,6.60
2018-11-26T03:02:40.835Z,6.60
2018-11-26T03:05:11.292Z,6.60
2018-11-26T03:07:39.417Z,6.60
2018-11-26T03:10:08.874Z,6.60
2018-11-26T03:12:37.660Z,6.60
2018-11-26T03:15:11.163Z,6.60
2018-11-26T03:17:39.610Z,6.60
2018-11-26T03:20:08.962Z,6.50
2018-11-26T03:22:37.076Z,6.50
2018-11-26T03:25:07.438Z,6.40
2018-11-26T03:27:35.560Z,6.30
2018-11-26T03:30:04.309Z,6.30
2018-11-26T03:32:32.446Z,6.30
2018-11-26T03:35:00.559Z,6.30
2018-11-26T03:37:28.693Z,6.40
2018-11-26T03:39:56.809Z,6.40
2018-11-26T03:42:24.944Z,6.40
2018-11-26T03:44:53.081Z,6.30
2018-11-26T03:47:21.209Z,6.30
2018-11-26T03:49:49.347Z,6.30
2018-11-26T03:52:17.476Z,6.30
2018-11-26T03:54:45.609Z,6.30
2018-11-26T03:57:13.725Z,6.30
2018-11-26T03:59:41.860Z,6.30
2018-11-26T04:02:09.980Z,6.30
2018-11-26T04:04:38.111Z,6.40
2018-11-26T04:07:06.716Z,6.40
2018-11-26T04:09:34.840Z,6.40
2018-11-26T04:12:02.972Z,6.40
2018-11-26T04:14:31.105Z,6.30
2018-11-26T04:17:02.436Z,6.30
2018-11-26T04:19:30.569Z,6.30
2018-11-26T04:21:58.691Z,6.30
2018-11-26T04:24:26.845Z,6.30
2018-11-26T04:26:54.992Z,6.30
2018-11-26T04:29:23.177Z,6.30
2018-11-26T04:31:51.311Z,6.20
2018-11-26T04:34:19.425Z,6.10
2018-11-26T04:36:47.580Z,6.10
2018-11-26T04:39:15.700Z,6.00
2018-11-26T04:41:43.824Z,6.00
2018-11-26T04:44:11.956Z,6.00
2018-11-26T04:46:40.097Z,6.00
2018-11-26T04:49:08.232Z,6.00
2018-11-26T04:51:36.353Z,5.90
2018-11-26T04:54:04.473Z,5.90
2018-11-26T04:56:32.593Z,5.90
2018-11-26T04:59:00.704Z,5.90
2018-11-26T05:01:28.880Z,5.90
2018-11-26T05:03:57.018Z,5.90
2018-11-26T05:06:25.158Z,5.90
2018-11-26T05:08:53.476Z,5.90
2018-11-26T05:11:21.596Z,6.00
2018-11-26T05:13:49.701Z,5.90
2018-11-26T05:16:17.840Z,5.80
2018-11-26T05:18:45.957Z,5.90
2018-11-26T05:21:14.095Z,5.80
2018-11-26T05:23:42.214Z,5.80
2018-11-26T05:26:10.332Z,5.80
2018-11-26T05:28:38.460Z,5.80
2018-11-26T05:31:08.044Z,5.80
2018-11-26T05:33:34.887Z,5.80
2018-11-26T05:36:03.017Z,5.80
2018-11-26T05:38:31.145Z,5.80
2018-11-26T05:40:59.276Z,5.90
2018-11-26T05:43:28.304Z,5.80
2018-11-26T05:45:56.434Z,5.90
2018-11-26T05:48:24.605Z,5.90
2018-11-26T05:50:52.740Z,5.90
2018-11-26T05:53:20.863Z,5.90
2018-11-26T05:55:49.022Z,5.90
2018-11-26T05:58:17.133Z,5.90
2018-11-26T06:00:45.436Z,5.80
2018-11-26T06:03:13.561Z,5.80
2018-11-26T06:05:41.692Z,5.70
2018-11-26T06:08:09.829Z,5.60
2018-11-26T06:10:37.954Z,5.60
2018-11-26T06:13:06.373Z,5.50
2018-11-26T06:15:34.692Z,5.40
2018-11-26T06:18:02.875Z,5.40
2018-11-26T06:20:30.990Z,5.40
2018-11-26T06:22:59.146Z,5.20
2018-11-26T06:25:27.287Z,5.10
2018-11-26T06:27:55.409Z,5.10
2018-11-26T06:30:23.533Z,5.10
2018-11-26T06:32:51.668Z,5.10
2018-11-26T06:35:21.921Z,5.10
2018-11-26T06:37:50.097Z,5.20
2018-11-26T06:40:18.221Z,5.10
2018-11-26T06:42:46.439Z,5.10
2018-11-26T06:45:20.722Z,5.00
2018-11-26T06:47:48.848Z,5.00
2018-11-26T06:50:18.150Z,5.00
2018-11-26T06:52:46.303Z,5.00
2018-11-26T06:55:16.539Z,4.90
2018-11-26T06:57:44.701Z,4.90
2018-11-26T07:00:14.748Z,4.80
2018-11-26T07:02:42.927Z,4.80
2018-11-26T07:05:15.369Z,4.90
2018-11-26T07:07:43.682Z,4.90
2018-11-26T07:10:12.541Z,4.90
2018-11-26T07:12:40.776Z,4.90
2018-11-26T07:15:11.560Z,5.00
2018-11-26T07:17:39.689Z,5.10
2018-11-26T07:20:09.550Z,5.10
2018-11-26T07:22:37.700Z,5.10
2018-11-26T07:25:08.969Z,5.20
2018-11-26T07:27:37.137Z,5.10
2018-11-26T07:30:08.905Z,5.00
2018-11-26T07:32:37.029Z,5.00
2018-11-26T07:35:06.371Z,5.00
2018-11-26T07:37:34.498Z,5.00
2018-11-26T07:40:02.642Z,5.00
2018-11-26T07:42:30.770Z,5.00
2018-11-26T07:44:58.880Z,4.90
2018-11-26T07:47:27.010Z,4.90
2018-11-26T07:49:55.124Z,4.90
2018-11-26T07:52:23.338Z,4.90
2018-11-26T07:54:51.484Z,4.90
2018-11-26T07:57:19.617Z,4.90
2018-11-26T07:59:47.734Z,4.90
2018-11-26T08:02:15.871Z,4.90
2018-11-26T08:04:44.005Z,4.90
2018-11-26T08:07:12.133Z,4.90
2018-11-26T08:09:40.260Z,4.90
2018-11-26T08:12:08.392Z,4.90
2018-11-26T08:14:36.526Z,4.90
2018-11-26T08:17:04.871Z,4.80
2018-11-26T08:19:32.981Z,4.60
2018-11-26T08:22:01.162Z,4.50
2018-11-26T08:24:29.289Z,4.50
2018-11-26T08:26:57.410Z,4.40
2018-11-26T08:29:25.647Z,4.40
2018-11-26T08:31:53.756Z,4.40
2018-11-26T08:34:21.886Z,4.30
2018-11-26T08:36:54.271Z,4.30
2018-11-26T08:39:26.693Z,4.30
2018-11-26T08:41:54.833Z,4.20
2018-11-26T08:44:28.192Z,4.10
2018-11-26T08:46:56.361Z,4.00
2018-11-26T08:49:27.058Z,3.90
2018-11-26T08:51:55.174Z,3.90
2018-11-26T08:54:23.300Z,3.80
2018-11-26T08:56:51.451Z,3.80
2018-11-26T08:59:19.572Z,3.80
2018-11-26T09:01:50.984Z,3.90
2018-11-26T09:04:20.493Z,3.90
2018-11-26T09:06:48.928Z,3.90
2018-11-26T09:09:17.064Z,3.90
2018-11-26T09:11:45.180Z,3.90
2018-11-26T09:14:13.376Z,3.90
2018-11-26T09:16:41.488Z,3.80
2018-11-26T09:19:09.614Z,3.80
2018-11-26T09:21:37.742Z,3.90
2018-11-26T09:24:05.864Z,3.90
2018-11-26T09:26:33.985Z,3.90
2018-11-26T09:29:02.133Z,3.90
2018-11-26T09:31:30.258Z,3.90
2018-11-26T09:33:58.380Z,3.90
2018-11-26T09:36:26.505Z,3.90
2018-11-26T09:38:54.613Z,3.90
2018-11-26T09:41:22.730Z,3.90
2018-11-26T09:43:50.860Z,3.80
2018-11-26T09:46:18.991Z,3.70
2018-11-26T09:48:47.111Z,3.70
2018-11-26T09:51:15.243Z,3.70
2018-11-26T09:53:43.368Z,3.70
2018-11-26T09:56:11.484Z,3.70
2018-11-26T09:58:39.601Z,3.70
2018-11-26T10:01:07.756Z,3.50
2018-11-26T10:03:35.875Z,3.60
2018-11-26T10:06:04.197Z,3.70
2018-11-26T10:08:32.382Z,3.80
2018-11-26T10:11:00.519Z,3.80
2018-11-26T10:13:28.628Z,3.80
2018-11-26T10:15:56.756Z,3.70
2018-11-26T10:18:24.881Z,3.60
2018-11-26T10:20:53.033Z,3.50
2018-11-26T10:23:21.142Z,3.50
2018-11-26T10:25:49.277Z,3.20
2018-11-26T10:28:17.386Z,3.20
2018-11-26T10:30:45.540Z,3.20
2018-11-26T10:33:14.808Z,3.30
2018-11-26T10:35:41.785Z,3.60
2018-11-26T10:38:09.900Z,3.50
2018-11-26T10:40:38.050Z,3.60
2018-11-26T10:43:11.515Z,3.60
2018-11-26T10:45:34.788Z,3.80
2018-11-26T10:48:02.947Z,3.70
2018-11-26T10:50:31.153Z,3.80
2018-11-26T10:52:59.563Z,4.00
2018-11-26T10:55:30.054Z,4.00
2018-11-26T10:57:58.171Z,4.10
2018-11-26T11:00:31.784Z,4.10
2018-11-26T11:02:59.918Z,4.10
2018-11-26T11:05:28.081Z,4.40
2018-11-26T11:07:56.216Z,4.20
2018-11-26T11:10:25.572Z,4.10
2018-11-26T11:12:53.686Z,4.10
2018-11-26T11:15:21.816Z,4.10
2018-11-26T11:17:49.956Z,4.10
2018-11-26T11:20:20.924Z,4.00
2018-11-26T11:22:49.108Z,4.10
2018-11-26T11:25:17.932Z,4.20
2018-11-26T11:27:46.181Z,4.30
2018-11-26T11:30:22.179Z,4.10
2018-11-26T11:32:50.321Z,4.10
2018-11-26T11:35:18.718Z,4.00
2018-11-26T11:37:47.608Z,4.10
2018-11-26T11:40:23.521Z,4.10
2018-11-26T11:42:51.679Z,4.00
2018-11-26T11:45:20.163Z,4.00
2018-11-26T11:47:48.294Z,4.10
2018-11-26T11:50:18.514Z,4.10
2018-11-26T11:52:46.909Z,4.20
2018-11-26T11:55:16.149Z,4.30
2018-11-26T11:57:44.320Z,4.30
2018-11-26T12:00:30.006Z,4.20
2018-11-26T12:02:58.390Z,4.20
2018-11-26T12:05:26.631Z,4.40
2018-11-26T12:07:54.703Z,4.40
2018-11-26T12:10:22.843Z,4.50
2018-11-26T12:12:50.979Z,4.60
2018-11-26T12:15:19.095Z,4.70
2018-11-26T12:17:47.955Z,4.70
2018-11-26T12:20:16.124Z,4.70
2018-11-26T12:22:44.662Z,4.80
2018-11-26T12:25:14.011Z,4.80
2018-11-26T12:27:42.181Z,4.80
2018-11-26T12:30:16.407Z,4.90
2018-11-26T12:32:44.563Z,4.80
2018-11-26T12:35:12.782Z,4.80
2018-11-26T12:37:40.922Z,4.90
2018-11-26T12:40:12.128Z,4.90
2018-11-26T12:42:40.280Z,4.80
2018-11-26T12:45:14.675Z,4.80
2018-11-26T12:47:42.887Z,4.90
2018-11-26T12:50:11.029Z,4.90
2018-11-26T12:52:39.179Z,5.00
2018-11-26T12:55:11.170Z,4.90
2018-11-26T12:57:40.042Z,5.00
2018-11-26T13:00:11.117Z,5.00
2018-11-26T13:02:39.247Z,5.10
2018-11-26T13:05:10.316Z,5.10
2018-11-26T13:07:38.425Z,5.00
2018-11-26T13:10:11.725Z,4.90
2018-11-26T13:12:39.845Z,4.80
2018-11-26T13:15:13.385Z,4.70
2018-11-26T13:17:41.631Z,4.70
2018-11-26T13:20:13.137Z,4.80
2018-11-26T13:22:41.288Z,4.90
2018-11-26T13:25:11.361Z,5.10
2018-11-26T13:27:40.745Z,5.10
2018-11-26T13:30:13.324Z,5.00
2018-11-26T13:32:41.506Z,4.90
2018-11-26T13:35:11.320Z,4.90
2018-11-26T13:37:39.439Z,4.80
2018-11-26T13:40:11.276Z,4.80
2018-11-26T13:42:39.493Z,4.90
2018-11-26T13:45:09.766Z,5.00
2018-11-26T13:47:38.127Z,5.10
2018-11-26T13:50:08.873Z,5.10
2018-11-26T13:52:36.982Z,5.10
2018-11-26T13:55:07.073Z,5.10
2018-11-26T13:57:35.180Z,5.20
2018-11-26T14:00:03.609Z,5.20
2018-11-26T14:02:31.696Z,5.30
2018-11-26T14:04:59.954Z,5.30
2018-11-26T14:07:28.053Z,5.30
2018-11-26T14:09:56.164Z,5.30
2018-11-26T14:12:24.292Z,5.30
2018-11-26T14:14:52.414Z,5.40
2018-11-26T14:17:20.525Z,5.30
2018-11-26T14:19:48.635Z,5.30
2018-11-26T14:22:16.748Z,5.40
2018-11-26T14:24:44.853Z,5.40
2018-11-26T14:27:12.981Z,5.40
2018-11-26T14:29:41.089Z,5.40
2018-11-26T14:32:09.223Z,5.40
2018-11-26T14:34:37.354Z,5.40
2018-11-26T14:37:05.720Z,5.40
2018-11-26T14:39:33.849Z,5.40
2018-11-26T14:42:02.009Z,5.40
2018-11-26T14:44:30.143Z,5.40
2018-11-26T14:46:58.276Z,5.40
2018-11-26T14:49:26.390Z,5.40
2018-11-26T14:51:54.511Z,5.40
2018-11-26T14:54:22.624Z,5.40
2018-11-26T14:56:50.751Z,5.40
2018-11-26T14:59:18.864Z,5.30
2018-11-26T15:01:46.990Z,5.30
2018-11-26T15:04:15.118Z,5.30
2018-11-26T15:06:43.247Z,5.20
2018-11-26T15:09:11.378Z,5.20
2018-11-26T15:11:39.493Z,5.20
2018-11-26T15:14:07.611Z,5.20
2018-11-26T15:16:35.720Z,5.20
2018-11-26T15:19:03.836Z,5.20
2018-11-26T15:21:31.979Z,5.20
2018-11-26T15:24:00.097Z,5.20
2018-11-26T15:26:28.231Z,5.30
2018-11-26T15:28:56.349Z,5.30
2018-11-26T15:31:24.514Z,5.30
2018-11-26T15:33:52.655Z,5.30
2018-11-26T15:36:21.846Z,5.30
2018-11-26T15:38:49.986Z,5.30
2018-11-26T15:41:18.106Z,5.30
2018-11-26T15:43:46.240Z,5.40
2018-11-26T15:46:14.378Z,5.40
2018-11-26T15:48:42.526Z,5.40
2018-11-26T15:51:10.672Z,5.50
2018-11-26T15:53:38.792Z,5.50
2018-11-26T15:56:06.928Z,5.50
2018-11-26T15:58:35.081Z,5.50
2018-11-26T16:01:03.225Z,5.50
2018-11-26T16:03:31.349Z,5.40
2018-11-26T16:05:59.475Z,5.40
2018-11-26T16:08:27.607Z,5.40
2018-11-26T16:10:55.720Z,5.40
2018-11-26T16:13:23.860Z,5.40
2018-11-26T16:15:52.010Z,5.40
2018-11-26T16:18:21.351Z,5.40
2018-11-26T16:20:50.466Z,5.40
2018-11-26T16:23:18.594Z,5.40
2018-11-26T16:25:47.691Z,5.40
2018-11-26T16:28:19.837Z,5.40
2018-11-26T16:30:48.905Z,5.50
2018-11-26T16:33:17.168Z,5.50
2018-11-26T16:35:45.276Z,5.50
2018-11-26T16:38:13.664Z,5.50
2018-11-26T16:40:41.772Z,5.50
2018-11-26T16:43:10.091Z,5.40
2018-11-26T16:45:38.209Z,5.40
2018-11-26T16:48:06.658Z,5.30
2018-11-26T16:50:35.994Z,5.40
2018-11-26T16:53:04.190Z,5.40
2018-11-26T16:55:32.335Z,5.40
2018-11-26T16:58:00.442Z,5.50
2018-11-26T17:00:30.823Z,5.40
2018-11-26T17:03:00.861Z,5.40
2018-11-26T17:05:38.205Z,5.40
2018-11-26T17:08:07.857Z,5.50
2018-11-26T17:10:35.992Z,5.40
2018-11-26T17:13:04.151Z,5.40
2018-11-26T17:15:32.304Z,5.40
2018-11-26T17:18:00.461Z,5.40
2018-11-26T17:20:28.709Z,5.50
2018-11-26T17:22:56.845Z,5.50
2018-11-26T17:25:25.005Z,5.50
2018-11-26T17:27:53.170Z,5.50
2018-11-26T17:30:23.339Z,5.50
2018-11-26T17:32:53.754Z,5.50
2018-11-26T17:35:21.906Z,5.50
2018-11-26T17:37:50.070Z,5.50
2018-11-26T17:40:20.204Z,5.50
2018-11-26T17:42:48.353Z,5.50
2018-11-26T17:45:16.999Z,5.60
2018-11-26T17:47:49.231Z,5.60
2018-11-26T17:50:20.374Z,5.50
2018-11-26T17:52:48.529Z,5.50
2018-11-26T17:55:16.669Z,5.50
2018-11-26T17:57:44.802Z,5.50
2018-11-26T18:00:16.775Z,5.50
2018-11-26T18:02:45.632Z,5.50
2018-11-26T18:05:16.301Z,5.40
2018-11-26T18:07:45.258Z,5.40
2018-11-26T18:10:14.782Z,5.40
2018-11-26T18:12:42.994Z,5.30
2018-11-26T18:15:13.285Z,5.30
2018-11-26T18:17:43.066Z,5.20
2018-11-26T18:20:12.582Z,5.30
2018-11-26T18:22:40.693Z,5.20
2018-11-26T18:25:10.085Z,5.20
2018-11-26T18:27:39.360Z,5.20
2018-11-26T18:30:12.883Z,5.20
2018-11-26T18:32:41.018Z,5.20
2018-11-26T18:35:09.158Z,5.20
2018-11-26T18:37:37.289Z,5.10
2018-11-26T18:40:09.051Z,5.10
2018-11-26T18:42:37.171Z,5.10
2018-11-26T18:45:07.037Z,5.10
2018-11-26T18:47:35.176Z,5.10
2018-11-26T18:50:04.125Z,5.10
2018-11-26T18:52:32.268Z,5.00
2018-11-26T18:55:00.610Z,5.00
2018-11-26T18:57:28.786Z,5.00
2018-11-26T19:00:03.437Z,5.00
2018-11-26T19:02:31.590Z,5.10
2018-11-26T19:04:59.683Z,5.10
2018-11-26T19:07:27.833Z,5.10
2018-11-26T19:09:55.945Z,5.20
2018-11-26T19:12:24.100Z,5.20
2018-11-26T19:14:52.217Z,5.20
2018-11-26T19:17:20.673Z,5.20
2018-11-26T19:19:48.778Z,5.20
2018-11-26T19:22:16.884Z,5.20
2018-11-26T19:24:44.995Z,5.30
2018-11-26T19:27:13.117Z,5.30
2018-11-26T19:29:41.254Z,5.30
2018-11-26T19:32:09.387Z,5.30
2018-11-26T19:34:37.514Z,5.30
2018-11-26T19:37:05.715Z,5.30
2018-11-26T19:39:33.849Z,5.30
2018-11-26T19:42:02.046Z,5.20
2018-11-26T19:44:30.214Z,5.30
2018-11-26T19:46:58.336Z,5.30
2018-11-26T19:49:26.468Z,5.40
2018-11-26T19:51:54.615Z,5.30
2018-11-26T19:54:23.475Z,5.40
2018-11-26T19:56:51.592Z,5.30
2018-11-26T19:59:19.733Z,5.30
2018-11-26T20:01:47.860Z,5.30
2018-11-26T20:04:27.788Z,5.30
2018-11-26T20:06:55.916Z,5.30
2018-11-26T20:09:24.031Z,5.30
2018-11-26T20:11:52.192Z,5.20
2018-11-26T20:14:25.633Z,5.20
2018-11-26T20:16:48.455Z,5.20
2018-11-26T20:19:16.588Z,5.20
2018-11-26T20:21:44.720Z,5.20
2018-11-26T20:24:12.863Z,5.20
2018-11-26T20:26:41.003Z,5.20
2018-11-26T20:29:09.120Z,5.20
2018-11-26T20:31:37.262Z,5.20
2018-11-26T20:34:05.548Z,5.20
2018-11-26T20:36:33.664Z,5.20
2018-11-26T20:39:01.801Z,5.20
2018-11-26T20:41:29.913Z,5.20
2018-11-26T20:43:58.042Z,5.20
2018-11-26T20:46:26.140Z,5.20
2018-11-26T20:48:54.258Z,5.10
2018-11-26T20:51:22.415Z,5.10
2018-11-26T20:53:50.540Z,5.10
2018-11-26T20:56:18.672Z,5.20
2018-11-26T20:58:47.323Z,5.20
2018-11-26T21:01:15.453Z,5.20
2018-11-26T21:03:43.571Z,5.20
2018-11-26T21:06:11.851Z,5.20
2018-11-26T21:08:39.835Z,5.20
2018-11-26T21:11:07.937Z,5.10
2018-11-26T21:13:36.060Z,5.10
2018-11-26T21:16:04.158Z,5.10
2018-11-26T21:18:32.267Z,5.10
2018-11-26T21:21:00.372Z,5.10
2018-11-26T21:23:30.097Z,5.10
2018-11-26T21:25:59.788Z,5.10
2018-11-26T21:28:27.903Z,5.20
2018-11-26T21:30:56.075Z,5.20
2018-11-26T21:33:24.216Z,5.20
2018-11-26T21:35:52.350Z,5.20
2018-11-26T21:38:20.523Z,5.20
2018-11-26T21:40:48.674Z,5.20
2018-11-26T21:43:16.820Z,5.30
2018-11-26T21:45:53.641Z,5.20
2018-11-26T21:48:21.819Z,5.20
2018-11-26T21:50:49.934Z,5.20
2018-11-26T21:53:18.070Z,5.20
2018-11-26T21:55:46.203Z,5.20
2018-11-26T21:58:14.321Z,5.10
2018-11-26T22:00:42.843Z,5.10
2018-11-26T22:03:12.093Z,5.10
2018-11-26T22:05:41.568Z,5.10
2018-11-26T22:08:10.738Z,5.00
2018-11-26T22:10:40.965Z,4.90
2018-11-26T22:13:10.761Z,4.90
2018-11-26T22:15:38.885Z,4.80
2018-11-26T22:18:07.539Z,4.80
2018-11-26T22:20:35.723Z,4.70
2018-11-26T22:23:03.917Z,4.70
2018-11-26T22:25:32.076Z,4.60
2018-11-26T22:28:00.199Z,4.60
2018-11-26T22:30:29.900Z,4.50
2018-11-26T22:32:58.013Z,4.50
2018-11-26T22:35:26.165Z,4.50
2018-11-26T22:37:54.260Z,4.60
2018-11-26T22:40:23.514Z,4.60
2018-11-26T22:42:51.693Z,4.60
2018-11-26T22:45:24.481Z,4.60
2018-11-26T22:47:56.913Z,4.60
2018-11-26T22:50:25.042Z,4.50
2018-11-26T22:52:53.143Z,4.60
2018-11-26T22:55:21.304Z,4.60
2018-11-26T22:57:49.397Z,4.60
2018-11-26T23:00:27.568Z,4.50
2018-11-26T23:02:58.849Z,4.40
2018-11-26T23:05:27.250Z,4.50
2018-11-26T23:07:55.373Z,4.50
2018-11-26T23:10:23.496Z,4.30
2018-11-26T23:12:51.629Z,4.30
2018-11-26T23:15:19.912Z,4.20
2018-11-26T23:17:48.449Z,4.30
2018-11-26T23:20:17.567Z,4.40
2018-11-26T23:22:45.673Z,4.50
2018-11-26T23:25:16.886Z,4.60
2018-11-26T23:27:45.025Z,4.50
2018-11-26T23:30:19.336Z,4.60
2018-11-26T23:32:48.620Z,4.60
2018-11-26T23:35:16.926Z,4.60
2018-11-26T23:37:45.046Z,4.30
2018-11-26T23:40:13.600Z,4.40
2018-11-26T23:42:41.688Z,4.30
2018-11-26T23:45:12.975Z,4.20
2018-11-26T23:47:41.069Z,4.30
2018-11-26T23:50:10.258Z,4.30
2018-11-26T23:52:39.026Z,4.30
2018-11-26T23:55:08.533Z,4.40
2018-11-26T23:57:36.650Z,4.40
